createdAt,value
2017-08-10T00:00:08.579Z,2.67
2017-08-10T00:02:36.329Z,2.37
2017-08-10T00:05:04.100Z,2.73
2017-08-10T00:07:31.828Z,5.33
2017-08-10T00:09:59.568Z,2.50
2017-08-10T00:12:27.330Z,2.90
2017-08-10T00:14:55.823Z,3.30
2017-08-10T00:17:23.566Z,2.83
2017-08-10T00:19:51.322Z,3.63
2017-08-10T00:22:19.077Z,3.70
2017-08-10T00:24:46.827Z,5.93
2017-08-10T00:27:14.577Z,3.23
2017-08-10T00:29:42.343Z,3.37
2017-08-10T00:32:10.075Z,2.60
2017-08-10T00:34:37.796Z,3.10
2017-08-10T00:37:05.524Z,2.90
2017-08-10T00:39:33.247Z,4.40
2017-08-10T00:42:00.964Z,2.97
2017-08-10T00:44:28.684Z,3.33
2017-08-10T00:46:56.415Z,3.33
2017-08-10T00:49:24.151Z,3.10
2017-08-10T00:51:51.867Z,2.93
2017-08-10T00:54:19.588Z,3.03
2017-08-10T00:56:47.316Z,2.90
2017-08-10T00:59:15.069Z,2.70
2017-08-10T01:01:43.519Z,3.00
2017-08-10T01:04:11.239Z,2.70
2017-08-10T01:06:38.982Z,2.73
2017-08-10T01:09:06.726Z,4.33
2017-08-10T01:11:35.243Z,3.50
2017-08-10T01:14:03.006Z,3.47
2017-08-10T01:16:31.500Z,2.87
2017-08-10T01:18:59.231Z,3.50
2017-08-10T01:21:27.010Z,3.30
2017-08-10T01:23:54.732Z,2.90
2017-08-10T01:26:23.226Z,4.43
2017-08-10T01:28:50.977Z,3.23
2017-08-10T01:31:19.490Z,2.53
2017-08-10T01:33:47.248Z,3.23
2017-08-10T01:36:15.085Z,3.30
2017-08-10T01:38:43.598Z,3.03
2017-08-10T01:41:11.369Z,2.77
2017-08-10T01:43:40.615Z,3.33
2017-08-10T01:46:08.335Z,2.70
2017-08-10T01:48:36.099Z,3.10
2017-08-10T01:51:03.939Z,4.27
2017-08-10T01:53:32.318Z,3.27
2017-08-10T01:56:00.893Z,4.27
2017-08-10T01:58:28.679Z,4.20
2017-08-10T02:00:56.501Z,3.00
2017-08-10T02:03:24.344Z,3.03
2017-08-10T02:05:52.119Z,2.93
2017-08-10T02:08:19.864Z,3.67
2017-08-10T02:10:47.611Z,4.00
2017-08-10T02:13:15.332Z,2.57
2017-08-10T02:15:43.055Z,2.90
2017-08-10T02:18:10.767Z,2.90
2017-08-10T02:20:38.493Z,3.40
2017-08-10T02:23:06.262Z,3.03
2017-08-10T02:25:34.000Z,3.00
2017-08-10T02:28:01.729Z,2.90
2017-08-10T02:30:29.451Z,3.30
2017-08-10T02:32:57.603Z,3.03
2017-08-10T02:35:25.351Z,3.10
2017-08-10T02:37:53.071Z,3.10
2017-08-10T02:40:20.794Z,2.60
2017-08-10T02:42:48.525Z,3.30
2017-08-10T02:45:17.284Z,2.90
2017-08-10T02:47:45.014Z,3.43
2017-08-10T02:50:12.751Z,2.90
2017-08-10T02:52:40.471Z,3.03
2017-08-10T02:55:09.027Z,3.03
2017-08-10T02:57:36.768Z,3.20
2017-08-10T03:00:04.490Z,3.10
2017-08-10T03:02:32.616Z,3.60
2017-08-10T03:05:00.742Z,2.50
2017-08-10T03:07:29.238Z,2.30
2017-08-10T03:09:56.968Z,3.17
2017-08-10T03:12:24.691Z,2.70
2017-08-10T03:14:52.427Z,5.07
2017-08-10T03:17:20.154Z,2.40
2017-08-10T03:19:47.887Z,3.23
2017-08-10T03:22:15.621Z,3.57
2017-08-10T03:24:43.357Z,2.80
2017-08-10T03:27:11.124Z,2.67
2017-08-10T03:29:39.099Z,2.87
2017-08-10T03:32:06.834Z,2.57
2017-08-10T03:34:34.559Z,2.63
2017-08-10T03:37:02.297Z,3.53
2017-08-10T03:39:30.034Z,3.20
2017-08-10T03:41:57.775Z,2.87
2017-08-10T03:44:25.500Z,3.50
2017-08-10T03:46:53.263Z,4.40
2017-08-10T03:49:20.995Z,2.73
2017-08-10T03:51:48.748Z,3.00
2017-08-10T03:54:16.467Z,3.70
2017-08-10T03:56:44.890Z,3.47
2017-08-10T03:59:12.620Z,4.10
2017-08-10T04:01:40.339Z,3.30
2017-08-10T04:04:08.090Z,3.43
2017-08-10T04:06:36.634Z,2.93
2017-08-10T04:09:04.475Z,3.43
2017-08-10T04:11:32.222Z,3.10
2017-08-10T04:14:00.062Z,3.60
2017-08-10T04:16:27.822Z,3.97
2017-08-10T04:18:55.552Z,3.00
2017-08-10T04:21:23.254Z,3.33
2017-08-10T04:23:50.976Z,5.30
2017-08-10T04:26:18.699Z,3.03
2017-08-10T04:28:47.203Z,3.00
2017-08-10T04:31:14.932Z,3.17
2017-08-10T04:33:43.426Z,3.47
2017-08-10T04:36:11.188Z,3.40
2017-08-10T04:38:38.929Z,3.90
2017-08-10T04:41:06.659Z,4.10
2017-08-10T04:43:34.387Z,4.27
2017-08-10T04:46:02.891Z,4.50
2017-08-10T04:48:30.615Z,3.97
2017-08-10T04:50:58.516Z,5.27
2017-08-10T04:53:26.280Z,7.03
2017-08-10T04:55:54.077Z,5.30
2017-08-10T04:58:21.809Z,5.27
2017-08-10T05:00:49.559Z,4.60
2017-08-10T05:03:17.282Z,6.67
2017-08-10T05:05:45.022Z,7.00
2017-08-10T05:08:12.761Z,7.30
2017-08-10T05:10:40.499Z,4.90
2017-08-10T05:13:08.231Z,5.30
2017-08-10T05:15:35.971Z,6.80
2017-08-10T05:18:03.763Z,5.07
2017-08-10T05:20:31.508Z,5.37
2017-08-10T05:22:59.238Z,5.03
2017-08-10T05:25:26.962Z,5.23
2017-08-10T05:27:55.768Z,4.67
2017-08-10T05:30:23.518Z,3.93
2017-08-10T05:32:51.251Z,3.90
2017-08-10T05:35:18.975Z,4.10
2017-08-10T05:37:47.783Z,3.50
2017-08-10T05:40:15.512Z,6.57
2017-08-10T05:42:43.267Z,5.17
2017-08-10T05:45:11.003Z,5.80
2017-08-10T05:47:39.127Z,4.27
2017-08-10T05:50:06.864Z,3.23
2017-08-10T05:52:34.595Z,4.70
2017-08-10T05:55:02.996Z,5.40
2017-08-10T05:57:30.755Z,3.63
2017-08-10T05:59:58.479Z,3.40
2017-08-10T06:02:26.227Z,3.60
2017-08-10T06:04:53.946Z,3.00
2017-08-10T06:07:21.684Z,3.53
2017-08-10T06:09:49.407Z,3.20
2017-08-10T06:12:17.899Z,3.57
2017-08-10T06:14:45.631Z,3.60
2017-08-10T06:17:13.368Z,6.00
2017-08-10T06:19:41.090Z,4.60
2017-08-10T06:22:08.871Z,10.00
2017-08-10T06:24:36.610Z,3.57
2017-08-10T06:27:04.327Z,3.00
2017-08-10T06:29:32.101Z,3.17
2017-08-10T06:31:59.828Z,4.77
2017-08-10T06:34:27.568Z,3.50
2017-08-10T06:36:56.124Z,4.10
2017-08-10T06:39:25.068Z,3.20
2017-08-10T06:41:52.803Z,5.83
2017-08-10T06:44:20.543Z,3.80
2017-08-10T06:46:48.258Z,3.63
2017-08-10T06:49:15.988Z,3.47
2017-08-10T06:51:44.481Z,3.90
2017-08-10T06:54:12.215Z,3.70
2017-08-10T06:56:39.966Z,3.90
2017-08-10T06:59:07.702Z,3.73
2017-08-10T07:01:35.412Z,3.60
2017-08-10T07:04:03.903Z,7.73
2017-08-10T07:06:31.633Z,3.30
2017-08-10T07:08:59.526Z,3.93
2017-08-10T07:11:27.260Z,3.53
2017-08-10T07:13:54.983Z,3.93
2017-08-10T07:16:22.702Z,3.63
2017-08-10T07:18:50.520Z,4.17
2017-08-10T07:21:19.020Z,4.20
2017-08-10T07:23:46.743Z,4.97
2017-08-10T07:26:15.251Z,5.50
2017-08-10T07:28:42.974Z,3.97
2017-08-10T07:31:10.704Z,3.77
2017-08-10T07:33:38.418Z,4.10
2017-08-10T07:36:06.159Z,6.73
2017-08-10T07:38:34.659Z,4.77
2017-08-10T07:41:02.443Z,3.40
2017-08-10T07:43:30.570Z,3.87
2017-08-10T07:45:58.314Z,4.10
2017-08-10T07:48:26.061Z,3.93
2017-08-10T07:50:53.809Z,3.50
2017-08-10T07:53:21.877Z,2.20
2017-08-10T07:55:49.636Z,1.67
2017-08-10T07:58:17.382Z,1.97
2017-08-10T08:00:45.127Z,2.00
2017-08-10T08:03:12.851Z,1.43
2017-08-10T08:05:40.604Z,1.40
2017-08-10T08:08:08.333Z,1.40
2017-08-10T08:10:36.819Z,1.70
2017-08-10T08:13:04.549Z,2.33
2017-08-10T08:15:32.270Z,2.40
2017-08-10T08:18:00.014Z,2.50
2017-08-10T08:20:29.082Z,2.73
2017-08-10T08:22:56.795Z,1.60
2017-08-10T08:25:24.686Z,1.80
2017-08-10T08:27:52.423Z,1.30
2017-08-10T08:30:20.146Z,1.53
2017-08-10T08:32:47.883Z,1.50
2017-08-10T08:35:15.611Z,1.50
2017-08-10T08:37:43.348Z,1.40
2017-08-10T08:40:11.847Z,1.60
2017-08-10T08:42:39.583Z,1.53
2017-08-10T08:45:07.314Z,1.50
2017-08-10T08:47:35.030Z,2.20
2017-08-10T08:50:02.751Z,1.40
2017-08-10T08:52:30.496Z,1.40
2017-08-10T08:54:58.215Z,1.10
2017-08-10T08:57:25.961Z,1.30
2017-08-10T08:59:53.681Z,1.23
2017-08-10T09:02:21.449Z,1.10
2017-08-10T09:04:49.200Z,1.50
2017-08-10T09:07:16.926Z,1.83
2017-08-10T09:09:44.662Z,1.77
2017-08-10T09:12:13.462Z,1.70
2017-08-10T09:14:41.171Z,2.10
2017-08-10T09:17:08.883Z,1.70
2017-08-10T09:19:37.391Z,1.70
2017-08-10T09:22:05.140Z,1.50
2017-08-10T09:24:32.856Z,1.77
2017-08-10T09:27:00.575Z,1.67
2017-08-10T09:29:29.853Z,1.40
2017-08-10T09:31:58.551Z,1.10
2017-08-10T09:34:27.043Z,1.17
2017-08-10T09:36:55.525Z,1.10
2017-08-10T09:39:23.288Z,2.20
2017-08-10T09:41:51.017Z,1.53
2017-08-10T09:44:18.769Z,0.87
2017-08-10T09:46:46.503Z,1.03
2017-08-10T09:49:14.233Z,0.73
2017-08-10T09:51:42.733Z,0.70
2017-08-10T09:54:10.511Z,1.13
2017-08-10T09:56:38.246Z,0.60
2017-08-10T09:59:06.746Z,1.13
2017-08-10T10:01:34.884Z,0.50
2017-08-10T10:04:02.659Z,0.67
2017-08-10T10:06:31.143Z,0.60
2017-08-10T10:08:58.875Z,0.90
2017-08-10T10:11:26.639Z,0.60
2017-08-10T10:13:54.350Z,1.07
2017-08-10T10:16:22.088Z,0.60
2017-08-10T10:18:49.807Z,0.70
2017-08-10T10:21:17.544Z,0.80
2017-08-10T10:23:45.296Z,1.27
2017-08-10T10:26:13.810Z,0.50
2017-08-10T10:28:41.696Z,0.50
2017-08-10T10:31:09.805Z,0.53
2017-08-10T10:33:38.828Z,0.70
2017-08-10T10:36:06.959Z,0.60
2017-08-10T10:38:34.687Z,0.50
2017-08-10T10:41:02.422Z,1.27
2017-08-10T10:43:30.136Z,0.40
2017-08-10T10:45:57.862Z,0.40
2017-08-10T10:48:25.607Z,0.47
2017-08-10T10:50:53.337Z,0.40
2017-08-10T10:53:21.115Z,0.40
2017-08-10T10:55:48.838Z,1.17
2017-08-10T10:58:16.590Z,0.40
2017-08-10T11:00:45.619Z,0.40
2017-08-10T11:03:14.083Z,0.50
2017-08-10T11:05:41.818Z,0.73
2017-08-10T11:08:10.911Z,0.40
2017-08-10T11:10:39.047Z,0.40
2017-08-10T11:13:06.772Z,0.40
2017-08-10T11:15:34.515Z,0.50
2017-08-10T11:18:10.350Z,0.40
2017-08-10T11:20:38.133Z,0.60
2017-08-10T11:23:06.264Z,0.50
2017-08-10T11:25:33.994Z,0.60
2017-08-10T11:28:02.899Z,0.50
2017-08-10T11:30:30.628Z,0.40
2017-08-10T11:32:58.366Z,0.40
2017-08-10T11:35:26.115Z,0.70
2017-08-10T11:37:53.851Z,0.40
2017-08-10T11:40:21.587Z,0.50
2017-08-10T11:42:49.317Z,1.10
2017-08-10T11:45:17.823Z,0.50
2017-08-10T11:47:45.548Z,0.47
2017-08-10T11:50:13.718Z,0.50
2017-08-10T11:52:41.424Z,0.40
2017-08-10T11:55:10.476Z,0.53
2017-08-10T11:57:38.198Z,0.50
2017-08-10T12:00:05.952Z,0.73
2017-08-10T12:02:34.431Z,0.50
2017-08-10T12:05:02.181Z,0.50
2017-08-10T12:07:29.923Z,0.70
2017-08-10T12:09:57.648Z,0.60
2017-08-10T12:12:25.388Z,0.53
2017-08-10T12:14:53.143Z,0.50
2017-08-10T12:17:20.870Z,0.50
2017-08-10T12:19:48.630Z,1.13
2017-08-10T12:22:17.965Z,0.60
2017-08-10T12:24:45.695Z,0.60
2017-08-10T12:27:13.434Z,0.40
2017-08-10T12:29:42.083Z,0.80
2017-08-10T12:32:09.807Z,0.47
2017-08-10T12:34:38.298Z,0.40
2017-08-10T12:37:06.010Z,0.60
2017-08-10T12:39:34.241Z,0.50
2017-08-10T12:42:01.987Z,0.40
2017-08-10T12:44:30.487Z,0.60
2017-08-10T12:46:58.237Z,0.50
2017-08-10T12:49:27.691Z,0.60
2017-08-10T12:51:55.431Z,0.53
2017-08-10T12:54:23.170Z,1.90
2017-08-10T12:56:50.925Z,1.10
2017-08-10T12:59:18.884Z,0.60
2017-08-10T13:01:47.563Z,0.67
2017-08-10T13:04:15.336Z,0.70
2017-08-10T13:06:43.163Z,2.97
2017-08-10T13:09:10.901Z,0.90
2017-08-10T13:11:38.622Z,0.77
2017-08-10T13:14:06.339Z,0.80
2017-08-10T13:16:34.942Z,0.70
2017-08-10T13:19:02.670Z,0.87
2017-08-10T13:21:30.889Z,1.17
2017-08-10T13:23:59.005Z,0.50
2017-08-10T13:26:26.744Z,0.50
2017-08-10T13:28:55.240Z,0.50
2017-08-10T13:31:22.963Z,0.60
2017-08-10T13:33:50.733Z,0.57
2017-08-10T13:36:18.471Z,0.40
2017-08-10T13:38:46.192Z,0.50
2017-08-10T13:41:13.953Z,0.43
2017-08-10T13:43:42.983Z,1.13
2017-08-10T13:46:11.127Z,0.60
2017-08-10T13:48:38.942Z,0.50
2017-08-10T13:51:06.739Z,0.50
2017-08-10T13:53:34.475Z,0.70
2017-08-10T13:56:02.271Z,0.57
2017-08-10T13:58:30.396Z,0.40
2017-08-10T14:00:58.117Z,0.50
2017-08-10T14:03:25.864Z,0.40
2017-08-10T14:05:53.609Z,0.60
2017-08-10T14:08:21.341Z,1.27
2017-08-10T14:10:49.067Z,0.50
2017-08-10T14:13:16.810Z,0.67
2017-08-10T14:15:44.584Z,0.40
2017-08-10T14:18:12.333Z,1.10
2017-08-10T14:20:40.054Z,0.70
2017-08-10T14:23:08.006Z,0.50
2017-08-10T14:25:35.734Z,0.40
2017-08-10T14:28:03.451Z,0.40
2017-08-10T14:30:31.180Z,1.17
2017-08-10T14:32:58.924Z,0.50
2017-08-10T14:35:26.666Z,0.50
2017-08-10T14:37:54.490Z,0.60
2017-08-10T14:40:22.228Z,0.50
2017-08-10T14:42:50.123Z,4.67
2017-08-10T14:45:20.047Z,1.27
2017-08-10T14:47:47.788Z,0.70
2017-08-10T14:50:15.551Z,0.80
2017-08-10T14:52:43.356Z,0.50
2017-08-10T14:55:11.083Z,0.40
2017-08-10T14:57:39.558Z,0.50
2017-08-10T15:00:08.224Z,0.87
2017-08-10T15:02:36.033Z,0.70
2017-08-10T15:05:03.786Z,1.00
2017-08-10T15:07:31.941Z,2.00
2017-08-10T15:09:59.704Z,0.80
2017-08-10T15:12:27.456Z,0.97
2017-08-10T15:14:55.610Z,0.80
2017-08-10T15:17:23.352Z,0.80
2017-08-10T15:19:51.893Z,2.57
2017-08-10T15:22:19.651Z,0.90
2017-08-10T15:24:47.393Z,0.50
2017-08-10T15:27:15.107Z,0.40
2017-08-10T15:29:43.827Z,0.90
2017-08-10T15:32:11.576Z,0.70
2017-08-10T15:34:39.322Z,0.60
2017-08-10T15:37:07.450Z,0.50
2017-08-10T15:39:36.607Z,1.20
2017-08-10T15:42:04.331Z,0.60
2017-08-10T15:44:32.852Z,0.80
2017-08-10T15:47:01.021Z,0.40
2017-08-10T15:49:29.807Z,0.60
2017-08-10T15:51:57.536Z,0.50
2017-08-10T15:54:25.279Z,0.60
2017-08-10T15:56:53.011Z,0.70
2017-08-10T15:59:20.737Z,0.50
2017-08-10T16:01:49.265Z,0.67
2017-08-10T16:04:17.391Z,0.87
2017-08-10T16:06:45.099Z,0.97
2017-08-10T16:09:13.251Z,0.90
2017-08-10T16:11:40.983Z,1.33
2017-08-10T16:14:08.788Z,0.63
2017-08-10T16:16:37.104Z,0.50
2017-08-10T16:19:04.856Z,1.90
2017-08-10T16:21:32.586Z,1.13
2017-08-10T16:24:00.720Z,1.20
2017-08-10T16:26:29.561Z,1.13
2017-08-10T16:28:57.284Z,0.93
2017-08-10T16:31:25.019Z,1.40
2017-08-10T16:33:53.158Z,1.97
2017-08-10T16:36:21.763Z,0.90
2017-08-10T16:38:49.495Z,1.67
2017-08-10T16:41:17.238Z,1.40
2017-08-10T16:43:44.964Z,1.37
2017-08-10T16:46:13.661Z,1.47
2017-08-10T16:48:41.403Z,1.77
2017-08-10T16:51:09.902Z,1.40
2017-08-10T16:53:37.633Z,1.00
2017-08-10T16:56:05.742Z,1.17
2017-08-10T16:58:34.240Z,1.03
2017-08-10T17:01:01.963Z,1.10
2017-08-10T17:03:29.731Z,1.10
2017-08-10T17:05:57.469Z,1.10
2017-08-10T17:08:25.199Z,1.00
2017-08-10T17:10:52.954Z,1.20
2017-08-10T17:13:20.683Z,2.00
2017-08-10T17:15:48.491Z,1.47
2017-08-10T17:18:16.252Z,1.93
2017-08-10T17:20:43.994Z,1.60
2017-08-10T17:23:11.739Z,1.60
2017-08-10T17:25:39.914Z,1.87
2017-08-10T17:28:07.641Z,1.50
2017-08-10T17:30:35.423Z,2.00
2017-08-10T17:33:03.149Z,1.40
2017-08-10T17:35:31.163Z,1.50
2017-08-10T17:37:58.927Z,2.40
2017-08-10T17:40:26.660Z,2.07
2017-08-10T17:42:54.415Z,1.77
2017-08-10T17:45:22.148Z,1.90
2017-08-10T17:47:50.666Z,1.90
2017-08-10T17:50:18.824Z,2.00
2017-08-10T17:52:46.952Z,2.57
2017-08-10T17:55:15.110Z,1.80
2017-08-10T17:57:43.748Z,1.70
2017-08-10T18:00:11.499Z,2.10
2017-08-10T18:02:42.850Z,2.20
2017-08-10T18:05:08.189Z,1.70
2017-08-10T18:07:36.348Z,2.37
2017-08-10T18:10:05.092Z,1.73
2017-08-10T18:12:32.978Z,2.67
2017-08-10T18:15:01.517Z,3.13
2017-08-10T18:17:29.262Z,2.40
2017-08-10T18:19:57.247Z,3.60
2017-08-10T18:22:24.987Z,2.70
2017-08-10T18:24:53.531Z,2.90
2017-08-10T18:27:21.501Z,2.67
2017-08-10T18:29:51.166Z,3.20
2017-08-10T18:32:18.903Z,1.40
2017-08-10T18:34:47.427Z,2.00
2017-08-10T18:37:15.585Z,1.53
2017-08-10T18:39:43.698Z,1.80
2017-08-10T18:42:11.444Z,1.70
2017-08-10T18:44:39.168Z,2.07
2017-08-10T18:47:08.206Z,1.97
2017-08-10T18:49:36.376Z,1.40
2017-08-10T18:52:04.494Z,1.27
2017-08-10T18:54:41.221Z,1.80
2017-08-10T18:57:08.971Z,2.10
2017-08-10T18:59:38.426Z,1.60
2017-08-10T19:02:06.321Z,1.60
2017-08-10T19:04:34.859Z,1.40
2017-08-10T19:07:03.002Z,1.70
2017-08-10T19:09:30.979Z,1.90
2017-08-10T19:11:58.745Z,2.60
2017-08-10T19:14:26.468Z,2.63
2017-08-10T19:16:54.231Z,3.27
2017-08-10T19:19:23.364Z,2.20
2017-08-10T19:21:51.137Z,2.40
2017-08-10T19:24:19.075Z,2.43
2017-08-10T19:26:47.635Z,1.87
2017-08-10T19:29:15.356Z,1.73
2017-08-10T19:31:43.383Z,2.40
2017-08-10T19:34:11.151Z,1.67
2017-08-10T19:36:39.040Z,1.80
2017-08-10T19:39:06.802Z,2.50
2017-08-10T19:41:35.860Z,1.90
2017-08-10T19:44:04.607Z,1.80
2017-08-10T19:46:32.347Z,2.80
2017-08-10T19:49:00.847Z,3.47
2017-08-10T19:51:28.721Z,1.87
2017-08-10T19:53:56.680Z,1.50
2017-08-10T19:56:24.417Z,1.13
2017-08-10T19:58:52.167Z,1.10
2017-08-10T20:01:19.940Z,2.00
2017-08-10T20:03:47.654Z,1.13
2017-08-10T20:06:15.744Z,2.47
2017-08-10T20:08:43.530Z,0.80
2017-08-10T20:11:11.728Z,1.00
2017-08-10T20:13:39.451Z,1.00
2017-08-10T20:16:08.181Z,2.63
2017-08-10T20:18:35.940Z,1.93
2017-08-10T20:21:03.770Z,2.83
2017-08-10T20:23:31.823Z,1.10
2017-08-10T20:25:59.929Z,1.20
2017-08-10T20:28:27.786Z,1.60
2017-08-10T20:30:55.959Z,6.17
2017-08-10T20:33:23.707Z,1.42
2017-08-10T20:35:52.275Z,3.03
2017-08-10T20:38:20.639Z,1.10
2017-08-10T20:40:48.517Z,2.30
2017-08-10T20:43:16.782Z,1.10
2017-08-10T20:45:44.759Z,1.40
2017-08-10T20:48:12.505Z,1.10
2017-08-10T20:50:41.169Z,0.90
2017-08-10T20:53:08.902Z,0.88
2017-08-10T20:55:36.638Z,0.88
2017-08-10T20:58:04.522Z,0.80
2017-08-10T21:00:32.671Z,0.90
2017-08-10T21:03:00.936Z,2.55
2017-08-10T21:05:28.898Z,2.75
2017-08-10T21:07:57.568Z,0.70
2017-08-10T21:10:25.334Z,0.80
2017-08-10T21:12:53.099Z,3.03
2017-08-10T21:15:20.842Z,0.60
2017-08-10T21:17:49.612Z,0.75
2017-08-10T21:20:17.343Z,1.42
2017-08-10T21:22:45.122Z,0.75
2017-08-10T21:25:12.862Z,2.58
2017-08-10T21:27:41.399Z,0.73
2017-08-10T21:30:09.168Z,0.75
2017-08-10T21:32:37.719Z,1.67
2017-08-10T21:35:05.862Z,0.65
2017-08-10T21:37:33.599Z,0.82
2017-08-10T21:40:01.364Z,1.10
2017-08-10T21:42:29.115Z,1.10
2017-08-10T21:44:56.849Z,0.95
2017-08-10T21:47:24.816Z,1.45
2017-08-10T21:49:52.563Z,1.70
2017-08-10T21:52:20.296Z,1.10
2017-08-10T21:54:48.819Z,0.82
2017-08-10T21:57:16.583Z,0.95
2017-08-10T21:59:44.307Z,1.20
2017-08-10T22:02:12.646Z,1.00
2017-08-10T22:04:40.391Z,0.60
2017-08-10T22:07:08.118Z,1.58
2017-08-10T22:09:35.879Z,0.60
2017-08-10T22:12:03.624Z,2.15
2017-08-10T22:14:31.367Z,0.88
2017-08-10T22:16:59.111Z,0.60
2017-08-10T22:19:27.638Z,1.15
2017-08-10T22:21:56.267Z,3.30
2017-08-10T22:24:24.101Z,1.12
2017-08-10T22:26:51.842Z,0.85
2017-08-10T22:29:19.554Z,1.17
2017-08-10T22:31:47.671Z,0.40
2017-08-10T22:34:15.411Z,1.30
2017-08-10T22:36:43.919Z,1.35
2017-08-10T22:39:11.654Z,1.73
2017-08-10T22:41:40.143Z,0.80
2017-08-10T22:44:07.871Z,1.35
2017-08-10T22:46:35.603Z,1.87
2017-08-10T22:49:03.557Z,1.40
2017-08-10T22:51:31.286Z,1.50
2017-08-10T22:53:59.483Z,1.30
2017-08-10T22:56:27.221Z,1.60
2017-08-10T22:58:54.979Z,1.37
2017-08-10T23:01:22.725Z,1.67
2017-08-10T23:03:50.458Z,1.77
2017-08-10T23:06:18.204Z,2.03
2017-08-10T23:08:45.935Z,1.90
2017-08-10T23:11:13.715Z,2.10
2017-08-10T23:13:42.234Z,2.80
2017-08-10T23:16:09.983Z,4.03
2017-08-10T23:18:37.729Z,3.78
2017-08-10T23:21:05.464Z,3.55
2017-08-10T23:23:33.203Z,3.78
2017-08-10T23:26:01.713Z,3.70
2017-08-10T23:28:29.459Z,4.78
2017-08-10T23:30:57.196Z,4.87
2017-08-10T23:33:24.943Z,5.00
2017-08-10T23:35:53.572Z,4.30
2017-08-10T23:38:21.297Z,5.00
2017-08-10T23:40:49.067Z,6.65
2017-08-10T23:43:16.796Z,6.65
2017-08-10T23:45:45.287Z,7.62
2017-08-10T23:48:13.543Z,5.20
2017-08-10T23:50:41.290Z,6.53
2017-08-10T23:53:09.018Z,6.97
2017-08-10T23:55:36.766Z,8.00
2017-08-10T23:58:04.619Z,7.10
